sensor_id;sensor_type;location;lat;lon;timestamp;P1;durP1;ratioP1;P2;durP2;ratioP2
55655;SDS011;41530;52.382;5.270;2022-07-23T00:00:05;1.23;;;0.70;;
55655;SDS011;41530;52.382;5.270;2022-07-23T00:02:33;1.88;;;0.70;;
55655;SDS011;41530;52.382;5.270;2022-07-23T00:05:00;1.50;;;0.65;;
55655;SDS011;41530;52.382;5.270;2022-07-23T00:07:27;1.40;;;0.50;;
55655;SDS011;41530;52.382;5.270;2022-07-23T00:09:53;0.95;;;0.60;;
55655;SDS011;41530;52.382;5.270;2022-07-23T00:12:20;1.33;;;0.60;;
55655;SDS011;41530;52.382;5.270;2022-07-23T00:14:47;1.80;;;0.63;;
55655;SDS011;41530;52.382;5.270;2022-07-23T00:17:14;1.60;;;0.70;;
55655;SDS011;41530;52.382;5.270;2022-07-23T00:19:41;0.93;;;0.52;;
55655;SDS011;41530;52.382;5.270;2022-07-23T00:22:08;1.98;;;0.63;;
55655;SDS011;41530;52.382;5.270;2022-07-23T00:24:34;3.05;;;0.60;;
55655;SDS011;41530;52.382;5.270;2022-07-23T00:27:01;1.65;;;0.68;;
55655;SDS011;41530;52.382;5.270;2022-07-23T00:29:28;1.95;;;0.80;;
55655;SDS011;41530;52.382;5.270;2022-07-23T00:31:55;3.72;;;0.90;;
55655;SDS011;41530;52.382;5.270;2022-07-23T00:34:22;1.67;;;0.80;;
55655;SDS011;41530;52.382;5.270;2022-07-23T00:36:49;0.55;;;0.50;;
55655;SDS011;41530;52.382;5.270;2022-07-23T00:39:15;1.33;;;0.75;;
55655;SDS011;41530;52.382;5.270;2022-07-23T00:41:42;0.40;;;0.40;;
55655;SDS011;41530;52.382;5.270;2022-07-23T00:44:22;0.93;;;0.60;;
55655;SDS011;41530;52.382;5.270;2022-07-23T00:46:53;1.05;;;0.50;;
55655;SDS011;41530;52.382;5.270;2022-07-23T00:49:28;1.98;;;0.57;;
55655;SDS011;41530;52.382;5.270;2022-07-23T00:51:56;2.55;;;0.60;;
55655;SDS011;41530;52.382;5.270;2022-07-23T00:54:24;0.88;;;0.70;;
55655;SDS011;41530;52.382;5.270;2022-07-23T00:56:52;0.98;;;0.60;;
55655;SDS011;41530;52.382;5.270;2022-07-23T00:59:19;0.88;;;0.60;;
55655;SDS011;41530;52.382;5.270;2022-07-23T01:01:46;2.22;;;0.50;;
55655;SDS011;41530;52.382;5.270;2022-07-23T01:04:15;3.85;;;0.85;;
55655;SDS011;41530;52.382;5.270;2022-07-23T01:06:43;0.60;;;0.60;;
55655;SDS011;41530;52.382;5.270;2022-07-23T01:09:11;1.58;;;0.70;;
55655;SDS011;41530;52.382;5.270;2022-07-23T01:11:38;0.52;;;0.50;;
55655;SDS011;41530;52.382;5.270;2022-07-23T01:14:13;1.77;;;0.57;;
55655;SDS011;41530;52.382;5.270;2022-07-23T01:16:42;1.33;;;0.60;;
55655;SDS011;41530;52.382;5.270;2022-07-23T01:19:10;0.50;;;0.50;;
55655;SDS011;41530;52.382;5.270;2022-07-23T01:21:38;1.73;;;0.60;;
55655;SDS011;41530;52.382;5.270;2022-07-23T01:24:06;0.95;;;0.60;;
55655;SDS011;41530;52.382;5.270;2022-07-23T01:26:33;2.72;;;0.47;;
55655;SDS011;41530;52.382;5.270;2022-07-23T01:28:59;0.60;;;0.40;;
55655;SDS011;41530;52.382;5.270;2022-07-23T01:31:27;1.50;;;0.60;;
55655;SDS011;41530;52.382;5.270;2022-07-23T01:33:56;3.72;;;0.73;;
55655;SDS011;41530;52.382;5.270;2022-07-23T01:36:25;1.20;;;0.70;;
55655;SDS011;41530;52.382;5.270;2022-07-23T01:38:52;1.33;;;0.50;;
55655;SDS011;41530;52.382;5.270;2022-07-23T01:41:19;1.50;;;0.75;;
55655;SDS011;41530;52.382;5.270;2022-07-23T01:43:46;1.55;;;0.50;;
55655;SDS011;41530;52.382;5.270;2022-07-23T01:46:12;1.95;;;0.70;;
55655;SDS011;41530;52.382;5.270;2022-07-23T01:48:42;5.38;;;0.70;;
55655;SDS011;41530;52.382;5.270;2022-07-23T01:51:09;0.82;;;0.60;;
55655;SDS011;41530;52.382;5.270;2022-07-23T01:53:35;1.15;;;0.60;;
55655;SDS011;41530;52.382;5.270;2022-07-23T01:56:02;0.57;;;0.40;;
55655;SDS011;41530;52.382;5.270;2022-07-23T01:58:29;0.82;;;0.63;;
55655;SDS011;41530;52.382;5.270;2022-07-23T02:00:56;1.13;;;0.75;;
55655;SDS011;41530;52.382;5.270;2022-07-23T02:03:23;0.70;;;0.50;;
55655;SDS011;41530;52.382;5.270;2022-07-23T02:05:50;1.88;;;0.68;;
55655;SDS011;41530;52.382;5.270;2022-07-23T02:08:17;0.90;;;0.60;;
55655;SDS011;41530;52.382;5.270;2022-07-23T02:10:44;1.08;;;0.70;;
55655;SDS011;41530;52.382;5.270;2022-07-23T02:13:11;1.40;;;0.60;;
55655;SDS011;41530;52.382;5.270;2022-07-23T02:15:45;0.80;;;0.60;;
55655;SDS011;41530;52.382;5.270;2022-07-23T02:18:12;2.75;;;0.77;;
55655;SDS011;41530;52.382;5.270;2022-07-23T02:20:39;2.63;;;0.60;;
55655;SDS011;41530;52.382;5.270;2022-07-23T02:23:06;0.98;;;0.50;;
55655;SDS011;41530;52.382;5.270;2022-07-23T02:25:33;2.67;;;0.75;;
55655;SDS011;41530;52.382;5.270;2022-07-23T02:28:00;1.10;;;0.50;;
55655;SDS011;41530;52.382;5.270;2022-07-23T02:30:27;3.25;;;0.60;;
55655;SDS011;41530;52.382;5.270;2022-07-23T02:32:53;1.45;;;0.65;;
55655;SDS011;41530;52.382;5.270;2022-07-23T02:35:20;1.63;;;0.70;;
55655;SDS011;41530;52.382;5.270;2022-07-23T02:37:47;1.52;;;0.55;;
55655;SDS011;41530;52.382;5.270;2022-07-23T02:40:16;1.85;;;0.68;;
55655;SDS011;41530;52.382;5.270;2022-07-23T02:42:43;0.80;;;0.70;;
55655;SDS011;41530;52.382;5.270;2022-07-23T02:45:09;0.98;;;0.80;;
55655;SDS011;41530;52.382;5.270;2022-07-23T02:47:36;2.33;;;0.95;;
55655;SDS011;41530;52.382;5.270;2022-07-23T02:50:03;1.73;;;0.70;;
55655;SDS011;41530;52.382;5.270;2022-07-23T02:52:31;1.85;;;0.80;;
55655;SDS011;41530;52.382;5.270;2022-07-23T02:54:58;0.52;;;0.52;;
55655;SDS011;41530;52.382;5.270;2022-07-23T02:57:24;1.33;;;0.60;;
55655;SDS011;41530;52.382;5.270;2022-07-23T02:59:51;1.48;;;0.70;;
55655;SDS011;41530;52.382;5.270;2022-07-23T03:02:17;1.35;;;0.65;;
55655;SDS011;41530;52.382;5.270;2022-07-23T03:04:44;1.52;;;0.73;;
55655;SDS011;41530;52.382;5.270;2022-07-23T03:07:11;1.77;;;0.70;;
55655;SDS011;41530;52.382;5.270;2022-07-23T03:09:37;2.17;;;0.75;;
55655;SDS011;41530;52.382;5.270;2022-07-23T03:12:04;1.17;;;1.08;;
55655;SDS011;41530;52.382;5.270;2022-07-23T03:14:38;3.75;;;0.60;;
55655;SDS011;41530;52.382;5.270;2022-07-23T03:17:05;1.20;;;0.60;;
55655;SDS011;41530;52.382;5.270;2022-07-23T03:19:31;3.55;;;0.80;;
55655;SDS011;41530;52.382;5.270;2022-07-23T03:21:58;2.50;;;0.70;;
55655;SDS011;41530;52.382;5.270;2022-07-23T03:24:25;1.45;;;0.85;;
55655;SDS011;41530;52.382;5.270;2022-07-23T03:27:11;1.08;;;0.90;;
55655;SDS011;41530;52.382;5.270;2022-07-23T03:29:38;2.55;;;0.65;;
55655;SDS011;41530;52.382;5.270;2022-07-23T03:32:05;4.95;;;0.77;;
55655;SDS011;41530;52.382;5.270;2022-07-23T03:34:31;2.78;;;0.95;;
55655;SDS011;41530;52.382;5.270;2022-07-23T03:36:58;0.95;;;0.70;;
55655;SDS011;41530;52.382;5.270;2022-07-23T03:39:29;1.90;;;0.60;;
55655;SDS011;41530;52.382;5.270;2022-07-23T03:41:55;1.70;;;0.70;;
55655;SDS011;41530;52.382;5.270;2022-07-23T03:44:22;1.65;;;0.73;;
55655;SDS011;41530;52.382;5.270;2022-07-23T03:46:49;1.02;;;0.77;;
55655;SDS011;41530;52.382;5.270;2022-07-23T03:49:16;1.45;;;0.75;;
55655;SDS011;41530;52.382;5.270;2022-07-23T03:51:42;3.25;;;0.80;;
55655;SDS011;41530;52.382;5.270;2022-07-23T03:54:09;1.35;;;0.60;;
55655;SDS011;41530;52.382;5.270;2022-07-23T03:56:35;2.55;;;0.73;;
55655;SDS011;41530;52.382;5.270;2022-07-23T03:59:02;1.98;;;0.68;;
55655;SDS011;41530;52.382;5.270;2022-07-23T04:01:30;2.15;;;0.73;;
55655;SDS011;41530;52.382;5.270;2022-07-23T04:03:56;1.95;;;0.80;;
55655;SDS011;41530;52.382;5.270;2022-07-23T04:06:23;0.63;;;0.50;;
55655;SDS011;41530;52.382;5.270;2022-07-23T04:08:49;1.50;;;0.80;;
55655;SDS011;41530;52.382;5.270;2022-07-23T04:11:16;1.15;;;0.60;;
55655;SDS011;41530;52.382;5.270;2022-07-23T04:13:43;1.02;;;0.80;;
55655;SDS011;41530;52.382;5.270;2022-07-23T04:16:09;4.28;;;0.70;;
55655;SDS011;41530;52.382;5.270;2022-07-23T04:18:36;1.15;;;0.60;;
55655;SDS011;41530;52.382;5.270;2022-07-23T04:21:03;0.90;;;0.60;;
55655;SDS011;41530;52.382;5.270;2022-07-23T04:23:30;1.38;;;0.60;;
55655;SDS011;41530;52.382;5.270;2022-07-23T04:25:56;4.05;;;0.70;;
55655;SDS011;41530;52.382;5.270;2022-07-23T04:28:23;1.05;;;0.80;;
55655;SDS011;41530;52.382;5.270;2022-07-23T04:30:49;2.55;;;0.60;;
55655;SDS011;41530;52.382;5.270;2022-07-23T04:33:16;3.15;;;0.98;;
55655;SDS011;41530;52.382;5.270;2022-07-23T04:35:43;5.55;;;0.75;;
55655;SDS011;41530;52.382;5.270;2022-07-23T04:38:09;2.30;;;0.65;;
55655;SDS011;41530;52.382;5.270;2022-07-23T04:40:36;0.85;;;0.70;;
55655;SDS011;41530;52.382;5.270;2022-07-23T04:43:03;1.58;;;0.85;;
55655;SDS011;41530;52.382;5.270;2022-07-23T04:45:29;2.13;;;0.70;;
55655;SDS011;41530;52.382;5.270;2022-07-23T04:47:56;0.73;;;0.52;;
55655;SDS011;41530;52.382;5.270;2022-07-23T04:50:23;1.02;;;0.73;;
55655;SDS011;41530;52.382;5.270;2022-07-23T04:52:50;1.25;;;1.00;;
55655;SDS011;41530;52.382;5.270;2022-07-23T04:55:17;1.35;;;0.70;;
55655;SDS011;41530;52.382;5.270;2022-07-23T04:57:44;0.68;;;0.57;;
55655;SDS011;41530;52.382;5.270;2022-07-23T05:00:10;3.45;;;1.00;;
55655;SDS011;41530;52.382;5.270;2022-07-23T05:02:37;1.20;;;0.70;;
55655;SDS011;41530;52.382;5.270;2022-07-23T05:05:04;2.35;;;0.70;;
55655;SDS011;41530;52.382;5.270;2022-07-23T05:07:31;2.40;;;0.82;;
55655;SDS011;41530;52.382;5.270;2022-07-23T05:09:57;1.15;;;0.70;;
55655;SDS011;41530;52.382;5.270;2022-07-23T05:12:24;1.15;;;1.00;;
55655;SDS011;41530;52.382;5.270;2022-07-23T05:14:51;3.13;;;0.80;;
55655;SDS011;41530;52.382;5.270;2022-07-23T05:17:19;1.63;;;0.90;;
55655;SDS011;41530;52.382;5.270;2022-07-23T05:19:45;1.77;;;1.13;;
55655;SDS011;41530;52.382;5.270;2022-07-23T05:22:12;5.13;;;0.93;;
55655;SDS011;41530;52.382;5.270;2022-07-23T05:24:38;1.60;;;0.70;;
55655;SDS011;41530;52.382;5.270;2022-07-23T05:27:05;2.00;;;0.90;;
55655;SDS011;41530;52.382;5.270;2022-07-23T05:29:31;2.05;;;0.73;;
55655;SDS011;41530;52.382;5.270;2022-07-23T05:31:58;1.85;;;0.68;;
55655;SDS011;41530;52.382;5.270;2022-07-23T05:34:24;2.25;;;0.70;;
55655;SDS011;41530;52.382;5.270;2022-07-23T05:36:51;1.60;;;0.73;;
55655;SDS011;41530;52.382;5.270;2022-07-23T05:39:17;1.15;;;0.70;;
55655;SDS011;41530;52.382;5.270;2022-07-23T05:41:44;0.65;;;0.60;;
55655;SDS011;41530;52.382;5.270;2022-07-23T05:44:11;2.15;;;0.80;;
55655;SDS011;41530;52.382;5.270;2022-07-23T05:46:37;2.20;;;0.60;;
55655;SDS011;41530;52.382;5.270;2022-07-23T05:49:04;6.95;;;0.70;;
55655;SDS011;41530;52.382;5.270;2022-07-23T05:51:32;1.58;;;0.63;;
55655;SDS011;41530;52.382;5.270;2022-07-23T05:53:58;3.42;;;0.63;;
55655;SDS011;41530;52.382;5.270;2022-07-23T05:56:25;1.40;;;0.70;;
55655;SDS011;41530;52.382;5.270;2022-07-23T05:58:52;0.88;;;0.50;;
55655;SDS011;41530;52.382;5.270;2022-07-23T06:01:18;2.20;;;0.75;;
55655;SDS011;41530;52.382;5.270;2022-07-23T06:03:45;1.00;;;0.52;;
55655;SDS011;41530;52.382;5.270;2022-07-23T06:06:12;1.23;;;0.63;;
55655;SDS011;41530;52.382;5.270;2022-07-23T06:08:38;3.42;;;0.55;;
55655;SDS011;41530;52.382;5.270;2022-07-23T06:11:05;3.03;;;0.45;;
55655;SDS011;41530;52.382;5.270;2022-07-23T06:13:31;0.80;;;0.50;;
55655;SDS011;41530;52.382;5.270;2022-07-23T06:15:58;2.90;;;0.70;;
55655;SDS011;41530;52.382;5.270;2022-07-23T06:18:24;0.95;;;0.52;;
55655;SDS011;41530;52.382;5.270;2022-07-23T06:20:51;1.95;;;0.50;;
55655;SDS011;41530;52.382;5.270;2022-07-23T06:23:25;0.80;;;0.60;;
55655;SDS011;41530;52.382;5.270;2022-07-23T06:25:52;1.75;;;0.60;;
55655;SDS011;41530;52.382;5.270;2022-07-23T06:28:19;1.73;;;0.70;;
55655;SDS011;41530;52.382;5.270;2022-07-23T06:30:45;1.02;;;0.60;;
55655;SDS011;41530;52.382;5.270;2022-07-23T06:33:12;2.10;;;0.57;;
55655;SDS011;41530;52.382;5.270;2022-07-23T06:35:38;0.88;;;0.50;;
55655;SDS011;41530;52.382;5.270;2022-07-23T06:38:06;2.58;;;0.50;;
55655;SDS011;41530;52.382;5.270;2022-07-23T06:40:33;3.25;;;0.65;;
55655;SDS011;41530;52.382;5.270;2022-07-23T06:42:59;1.77;;;0.57;;
55655;SDS011;41530;52.382;5.270;2022-07-23T06:45:26;2.47;;;0.50;;
55655;SDS011;41530;52.382;5.270;2022-07-23T06:47:53;0.52;;;0.50;;
55655;SDS011;41530;52.382;5.270;2022-07-23T06:50:19;1.08;;;0.60;;
55655;SDS011;41530;52.382;5.270;2022-07-23T06:52:46;2.28;;;0.50;;
55655;SDS011;41530;52.382;5.270;2022-07-23T06:55:12;2.40;;;0.70;;
55655;SDS011;41530;52.382;5.270;2022-07-23T06:57:40;3.22;;;0.65;;
55655;SDS011;41530;52.382;5.270;2022-07-23T07:00:07;1.90;;;0.47;;
55655;SDS011;41530;52.382;5.270;2022-07-23T07:02:34;0.80;;;0.50;;
55655;SDS011;41530;52.382;5.270;2022-07-23T07:05:01;1.98;;;0.63;;
55655;SDS011;41530;52.382;5.270;2022-07-23T07:07:31;2.42;;;0.65;;
55655;SDS011;41530;52.382;5.270;2022-07-23T07:09:58;1.38;;;0.60;;
55655;SDS011;41530;52.382;5.270;2022-07-23T07:12:24;0.80;;;0.60;;
55655;SDS011;41530;52.382;5.270;2022-07-23T07:14:51;2.17;;;0.50;;
55655;SDS011;41530;52.382;5.270;2022-07-23T07:17:17;1.08;;;0.47;;
55655;SDS011;41530;52.382;5.270;2022-07-23T07:19:44;0.98;;;0.50;;
55655;SDS011;41530;52.382;5.270;2022-07-23T07:22:10;2.60;;;0.50;;
55655;SDS011;41530;52.382;5.270;2022-07-23T07:24:37;1.95;;;0.60;;
55655;SDS011;41530;52.382;5.270;2022-07-23T07:27:04;2.80;;;0.47;;
55655;SDS011;41530;52.382;5.270;2022-07-23T07:29:31;0.90;;;0.50;;
55655;SDS011;41530;52.382;5.270;2022-07-23T07:31:57;1.77;;;0.60;;
55655;SDS011;41530;52.382;5.270;2022-07-23T07:34:24;1.85;;;0.40;;
55655;SDS011;41530;52.382;5.270;2022-07-23T07:36:50;1.58;;;0.80;;
55655;SDS011;41530;52.382;5.270;2022-07-23T07:39:17;2.15;;;0.70;;
55655;SDS011;41530;52.382;5.270;2022-07-23T07:41:43;1.52;;;0.70;;
55655;SDS011;41530;52.382;5.270;2022-07-23T07:44:10;1.90;;;0.50;;
55655;SDS011;41530;52.382;5.270;2022-07-23T07:46:37;1.08;;;0.47;;
55655;SDS011;41530;52.382;5.270;2022-07-23T07:49:03;3.08;;;0.75;;
55655;SDS011;41530;52.382;5.270;2022-07-23T07:51:31;2.72;;;0.45;;
55655;SDS011;41530;52.382;5.270;2022-07-23T07:53:59;2.17;;;0.60;;
55655;SDS011;41530;52.382;5.270;2022-07-23T07:56:27;2.75;;;0.50;;
55655;SDS011;41530;52.382;5.270;2022-07-23T07:58:54;1.83;;;0.50;;
55655;SDS011;41530;52.382;5.270;2022-07-23T08:01:20;0.68;;;0.50;;
55655;SDS011;41530;52.382;5.270;2022-07-23T08:03:48;0.60;;;0.40;;
55655;SDS011;41530;52.382;5.270;2022-07-23T08:06:14;2.08;;;0.45;;
55655;SDS011;41530;52.382;5.270;2022-07-23T08:08:41;1.27;;;0.40;;
55655;SDS011;41530;52.382;5.270;2022-07-23T08:11:07;1.85;;;0.60;;
55655;SDS011;41530;52.382;5.270;2022-07-23T08:13:34;1.25;;;0.35;;
55655;SDS011;41530;52.382;5.270;2022-07-23T08:16:00;6.05;;;0.50;;
55655;SDS011;41530;52.382;5.270;2022-07-23T08:18:27;1.52;;;0.50;;
55655;SDS011;41530;52.382;5.270;2022-07-23T08:20:55;1.08;;;0.52;;
55655;SDS011;41530;52.382;5.270;2022-07-23T08:23:22;1.48;;;0.52;;
55655;SDS011;41530;52.382;5.270;2022-07-23T08:25:55;1.00;;;0.40;;
55655;SDS011;41530;52.382;5.270;2022-07-23T08:28:23;2.33;;;0.52;;
55655;SDS011;41530;52.382;5.270;2022-07-23T08:30:49;4.15;;;0.50;;
55655;SDS011;41530;52.382;5.270;2022-07-23T08:33:17;1.38;;;0.38;;
55655;SDS011;41530;52.382;5.270;2022-07-23T08:36:00;1.80;;;0.45;;
55655;SDS011;41530;52.382;5.270;2022-07-23T08:38:29;1.90;;;0.50;;
55655;SDS011;41530;52.382;5.270;2022-07-23T08:40:57;1.00;;;0.50;;
55655;SDS011;41530;52.382;5.270;2022-07-23T08:43:28;3.08;;;0.50;;
55655;SDS011;41530;52.382;5.270;2022-07-23T08:45:57;4.97;;;1.40;;
55655;SDS011;41530;52.382;5.270;2022-07-23T08:48:28;2.33;;;0.50;;
55655;SDS011;41530;52.382;5.270;2022-07-23T08:50:58;1.48;;;0.50;;
55655;SDS011;41530;52.382;5.270;2022-07-23T08:53:27;4.15;;;0.50;;
55655;SDS011;41530;52.382;5.270;2022-07-23T08:55:59;2.78;;;0.43;;
55655;SDS011;41530;52.382;5.270;2022-07-23T08:58:30;0.85;;;0.45;;
55655;SDS011;41530;52.382;5.270;2022-07-23T09:00:57;1.38;;;0.40;;
55655;SDS011;41530;52.382;5.270;2022-07-23T09:03:26;3.33;;;0.60;;
55655;SDS011;41530;52.382;5.270;2022-07-23T09:05:55;1.33;;;0.50;;
55655;SDS011;41530;52.382;5.270;2022-07-23T09:08:24;1.60;;;0.60;;
55655;SDS011;41530;52.382;5.270;2022-07-23T09:10:55;2.03;;;0.50;;
55655;SDS011;41530;52.382;5.270;2022-07-23T09:15:49;0.45;;;0.30;;
55655;SDS011;41530;52.382;5.270;2022-07-23T09:18:19;1.67;;;0.63;;
55655;SDS011;41530;52.382;5.270;2022-07-23T09:21:04;3.53;;;0.70;;
55655;SDS011;41530;52.382;5.270;2022-07-23T09:23:39;3.60;;;0.50;;
55655;SDS011;41530;52.382;5.270;2022-07-23T09:26:22;0.73;;;0.40;;
55655;SDS011;41530;52.382;5.270;2022-07-23T09:29:00;2.42;;;0.50;;
55655;SDS011;41530;52.382;5.270;2022-07-23T09:34:10;3.65;;;0.70;;
55655;SDS011;41530;52.382;5.270;2022-07-23T09:36:40;1.50;;;0.40;;
55655;SDS011;41530;52.382;5.270;2022-07-23T09:39:07;2.78;;;0.60;;
55655;SDS011;41530;52.382;5.270;2022-07-23T09:41:44;0.95;;;0.40;;
55655;SDS011;41530;52.382;5.270;2022-07-23T09:44:16;1.48;;;0.40;;
55655;SDS011;41530;52.382;5.270;2022-07-23T09:46:48;1.38;;;0.55;;
55655;SDS011;41530;52.382;5.270;2022-07-23T09:49:16;2.05;;;0.52;;
55655;SDS011;41530;52.382;5.270;2022-07-23T09:51:55;3.10;;;0.50;;
55655;SDS011;41530;52.382;5.270;2022-07-23T09:59:31;0.98;;;0.50;;
55655;SDS011;41530;52.382;5.270;2022-07-23T10:02:00;2.42;;;0.50;;
55655;SDS011;41530;52.382;5.270;2022-07-23T10:04:28;0.90;;;0.50;;
55655;SDS011;41530;52.382;5.270;2022-07-23T10:06:59;0.95;;;0.50;;
55655;SDS011;41530;52.382;5.270;2022-07-23T10:09:32;1.17;;;0.40;;
55655;SDS011;41530;52.382;5.270;2022-07-23T10:12:03;4.57;;;0.40;;
55655;SDS011;41530;52.382;5.270;2022-07-23T10:14:43;2.20;;;0.50;;
55655;SDS011;41530;52.382;5.270;2022-07-23T10:17:11;1.10;;;0.38;;
55655;SDS011;41530;52.382;5.270;2022-07-23T10:19:38;1.95;;;0.50;;
55655;SDS011;41530;52.382;5.270;2022-07-23T10:22:13;1.50;;;0.57;;
55655;SDS011;41530;52.382;5.270;2022-07-23T10:27:53;1.88;;;0.90;;
55655;SDS011;41530;52.382;5.270;2022-07-23T10:35:55;3.38;;;1.25;;
55655;SDS011;41530;52.382;5.270;2022-07-23T10:41:06;2.08;;;1.00;;
55655;SDS011;41530;52.382;5.270;2022-07-23T10:43:32;1.77;;;1.17;;
55655;SDS011;41530;52.382;5.270;2022-07-23T10:46:20;2.95;;;1.02;;
55655;SDS011;41530;52.382;5.270;2022-07-23T10:49:45;1.60;;;0.77;;
55655;SDS011;41530;52.382;5.270;2022-07-23T10:52:20;3.20;;;0.80;;
55655;SDS011;41530;52.382;5.270;2022-07-23T10:54:56;1.00;;;0.70;;
55655;SDS011;41530;52.382;5.270;2022-07-23T10:57:48;1.00;;;0.68;;
55655;SDS011;41530;52.382;5.270;2022-07-23T11:00:17;2.75;;;0.90;;
55655;SDS011;41530;52.382;5.270;2022-07-23T11:02:48;2.50;;;0.80;;
55655;SDS011;41530;52.382;5.270;2022-07-23T11:05:18;2.35;;;0.57;;
55655;SDS011;41530;52.382;5.270;2022-07-23T11:10:35;3.38;;;0.90;;
55655;SDS011;41530;52.382;5.270;2022-07-23T11:31:55;2.03;;;1.02;;
55655;SDS011;41530;52.382;5.270;2022-07-23T11:37:07;1.10;;;0.75;;
55655;SDS011;41530;52.382;5.270;2022-07-23T11:39:35;0.68;;;0.68;;
55655;SDS011;41530;52.382;5.270;2022-07-23T11:42:03;2.35;;;0.70;;
55655;SDS011;41530;52.382;5.270;2022-07-23T11:44:32;2.95;;;1.00;;
55655;SDS011;41530;52.382;5.270;2022-07-23T11:47:01;1.85;;;0.70;;
55655;SDS011;41530;52.382;5.270;2022-07-23T11:49:30;0.95;;;0.55;;
55655;SDS011;41530;52.382;5.270;2022-07-23T11:52:08;4.75;;;0.70;;
55655;SDS011;41530;52.382;5.270;2022-07-23T11:54:42;0.77;;;0.70;;
55655;SDS011;41530;52.382;5.270;2022-07-23T11:57:24;2.03;;;0.65;;
55655;SDS011;41530;52.382;5.270;2022-07-23T11:59:53;0.60;;;0.60;;
55655;SDS011;41530;52.382;5.270;2022-07-23T12:02:22;3.53;;;1.00;;
55655;SDS011;41530;52.382;5.270;2022-07-23T12:04:50;1.02;;;0.73;;
55655;SDS011;41530;52.382;5.270;2022-07-23T12:10:14;9.25;;;1.25;;
55655;SDS011;41530;52.382;5.270;2022-07-23T12:12:45;2.42;;;0.95;;
55655;SDS011;41530;52.382;5.270;2022-07-23T12:15:13;1.92;;;1.02;;
55655;SDS011;41530;52.382;5.270;2022-07-23T12:17:41;1.50;;;0.95;;
55655;SDS011;41530;52.382;5.270;2022-07-23T12:22:47;1.17;;;1.08;;
55655;SDS011;41530;52.382;5.270;2022-07-23T12:25:16;2.30;;;1.08;;
55655;SDS011;41530;52.382;5.270;2022-07-23T12:27:45;3.78;;;1.30;;
55655;SDS011;41530;52.382;5.270;2022-07-23T12:30:17;4.20;;;1.00;;
55655;SDS011;41530;52.382;5.270;2022-07-23T12:32:47;1.63;;;0.93;;
55655;SDS011;41530;52.382;5.270;2022-07-23T12:35:15;1.48;;;1.10;;
55655;SDS011;41530;52.382;5.270;2022-07-23T12:37:43;1.45;;;1.00;;
55655;SDS011;41530;52.382;5.270;2022-07-23T12:43:01;1.98;;;1.20;;
55655;SDS011;41530;52.382;5.270;2022-07-23T12:45:49;3.05;;;1.38;;
55655;SDS011;41530;52.382;5.270;2022-07-23T12:48:18;2.80;;;1.00;;
55655;SDS011;41530;52.382;5.270;2022-07-23T12:53:25;2.17;;;0.90;;
55655;SDS011;41530;52.382;5.270;2022-07-23T12:55:58;3.72;;;1.20;;
55655;SDS011;41530;52.382;5.270;2022-07-23T12:58:49;3.47;;;1.08;;
55655;SDS011;41530;52.382;5.270;2022-07-23T13:04:05;2.00;;;1.10;;
55655;SDS011;41530;52.382;5.270;2022-07-23T13:06:47;2.80;;;1.17;;
55655;SDS011;41530;52.382;5.270;2022-07-23T13:09:24;1.98;;;1.10;;
55655;SDS011;41530;52.382;5.270;2022-07-23T13:11:52;1.27;;;1.17;;
55655;SDS011;41530;52.382;5.270;2022-07-23T13:14:22;3.42;;;1.33;;
55655;SDS011;41530;52.382;5.270;2022-07-23T13:16:50;3.70;;;1.25;;
55655;SDS011;41530;52.382;5.270;2022-07-23T13:19:18;1.60;;;1.10;;
55655;SDS011;41530;52.382;5.270;2022-07-23T13:21:46;5.13;;;1.42;;
55655;SDS011;41530;52.382;5.270;2022-07-23T13:24:12;1.25;;;0.90;;
55655;SDS011;41530;52.382;5.270;2022-07-23T13:26:40;1.70;;;1.10;;
55655;SDS011;41530;52.382;5.270;2022-07-23T13:29:07;1.30;;;1.20;;
55655;SDS011;41530;52.382;5.270;2022-07-23T13:31:36;3.30;;;1.35;;
55655;SDS011;41530;52.382;5.270;2022-07-23T13:34:04;4.07;;;1.23;;
55655;SDS011;41530;52.382;5.270;2022-07-23T13:36:33;3.72;;;0.95;;
55655;SDS011;41530;52.382;5.270;2022-07-23T13:39:01;3.95;;;1.40;;
55655;SDS011;41530;52.382;5.270;2022-07-23T13:41:30;1.83;;;1.13;;
55655;SDS011;41530;52.382;5.270;2022-07-23T13:43:56;1.23;;;1.13;;
55655;SDS011;41530;52.382;5.270;2022-07-23T13:46:24;2.03;;;1.00;;
55655;SDS011;41530;52.382;5.270;2022-07-23T13:48:51;2.20;;;1.00;;
55655;SDS011;41530;52.382;5.270;2022-07-23T13:51:19;1.67;;;1.25;;
55655;SDS011;41530;52.382;5.270;2022-07-23T13:53:47;1.00;;;0.90;;
55655;SDS011;41530;52.382;5.270;2022-07-23T13:56:15;1.98;;;1.30;;
55655;SDS011;41530;52.382;5.270;2022-07-23T13:58:41;3.95;;;1.20;;
55655;SDS011;41530;52.382;5.270;2022-07-23T14:01:08;1.77;;;1.10;;
55655;SDS011;41530;52.382;5.270;2022-07-23T14:03:35;4.25;;;1.20;;
55655;SDS011;41530;52.382;5.270;2022-07-23T14:06:02;1.90;;;1.00;;
55655;SDS011;41530;52.382;5.270;2022-07-23T14:08:29;4.68;;;1.25;;
55655;SDS011;41530;52.382;5.270;2022-07-23T14:10:55;4.40;;;1.30;;
55655;SDS011;41530;52.382;5.270;2022-07-23T14:13:24;2.13;;;1.20;;
55655;SDS011;41530;52.382;5.270;2022-07-23T14:15:51;5.13;;;1.42;;
55655;SDS011;41530;52.382;5.270;2022-07-23T14:18:18;1.85;;;1.17;;
55655;SDS011;41530;52.382;5.270;2022-07-23T14:20:47;2.33;;;1.30;;
55655;SDS011;41530;52.382;5.270;2022-07-23T14:23:13;1.33;;;1.00;;
55655;SDS011;41530;52.382;5.270;2022-07-23T14:25:40;3.40;;;1.10;;
55655;SDS011;41530;52.382;5.270;2022-07-23T14:28:08;4.10;;;1.23;;
55655;SDS011;41530;52.382;5.270;2022-07-23T14:30:34;1.30;;;1.02;;
55655;SDS011;41530;52.382;5.270;2022-07-23T14:33:01;2.83;;;1.58;;
55655;SDS011;41530;52.382;5.270;2022-07-23T14:35:27;1.67;;;1.02;;
55655;SDS011;41530;52.382;5.270;2022-07-23T14:37:54;3.83;;;1.20;;
55655;SDS011;41530;52.382;5.270;2022-07-23T14:40:21;4.55;;;1.20;;
55655;SDS011;41530;52.382;5.270;2022-07-23T14:42:48;1.95;;;0.98;;
55655;SDS011;41530;52.382;5.270;2022-07-23T14:45:16;1.60;;;1.17;;
55655;SDS011;41530;52.382;5.270;2022-07-23T14:47:44;2.13;;;1.33;;
55655;SDS011;41530;52.382;5.270;2022-07-23T14:50:12;4.22;;;1.50;;
55655;SDS011;41530;52.382;5.270;2022-07-23T14:52:40;4.72;;;1.52;;
55655;SDS011;41530;52.382;5.270;2022-07-23T14:55:06;1.83;;;1.30;;
55655;SDS011;41530;52.382;5.270;2022-07-23T14:57:33;2.90;;;1.20;;
55655;SDS011;41530;52.382;5.270;2022-07-23T15:00:00;2.85;;;1.42;;
55655;SDS011;41530;52.382;5.270;2022-07-23T15:02:27;3.10;;;1.42;;
55655;SDS011;41530;52.382;5.270;2022-07-23T15:04:54;1.92;;;1.30;;
55655;SDS011;41530;52.382;5.270;2022-07-23T15:07:21;1.92;;;1.20;;
55655;SDS011;41530;52.382;5.270;2022-07-23T15:09:52;2.55;;;1.30;;
55655;SDS011;41530;52.382;5.270;2022-07-23T15:12:19;4.88;;;1.60;;
55655;SDS011;41530;52.382;5.270;2022-07-23T15:14:47;3.55;;;1.20;;
55655;SDS011;41530;52.382;5.270;2022-07-23T15:17:13;1.95;;;1.08;;
55655;SDS011;41530;52.382;5.270;2022-07-23T15:19:40;3.50;;;1.25;;
55655;SDS011;41530;52.382;5.270;2022-07-23T15:22:07;1.75;;;0.98;;
55655;SDS011;41530;52.382;5.270;2022-07-23T15:24:34;2.42;;;1.10;;
55655;SDS011;41530;52.382;5.270;2022-07-23T15:27:00;4.65;;;1.27;;
55655;SDS011;41530;52.382;5.270;2022-07-23T15:29:27;5.97;;;1.52;;
55655;SDS011;41530;52.382;5.270;2022-07-23T15:31:54;2.70;;;1.20;;
55655;SDS011;41530;52.382;5.270;2022-07-23T15:34:24;3.72;;;1.38;;
55655;SDS011;41530;52.382;5.270;2022-07-23T15:36:51;2.30;;;1.30;;
55655;SDS011;41530;52.382;5.270;2022-07-23T15:39:18;2.45;;;1.42;;
55655;SDS011;41530;52.382;5.270;2022-07-23T15:41:44;1.67;;;1.20;;
55655;SDS011;41530;52.382;5.270;2022-07-23T15:44:13;2.08;;;1.35;;
55655;SDS011;41530;52.382;5.270;2022-07-23T15:46:55;2.03;;;1.20;;
55655;SDS011;41530;52.382;5.270;2022-07-23T15:49:25;3.00;;;1.08;;
55655;SDS011;41530;52.382;5.270;2022-07-23T15:51:53;3.30;;;1.40;;
55655;SDS011;41530;52.382;5.270;2022-07-23T15:54:21;2.70;;;1.40;;